Time;durP1;ratioP1;P1;durP2;ratioP2;P2;SDS_P1;SDS_P2;PMS_P1;PMS_P2;Temp;Humidity;BMP_temperature;BMP_pressure;BME280_temperature;BME280_humidity;BME280_pressure;Samples;Min_cycle;Max_cycle;Signal;HPM_P1;HPM_P2
2022/01/15 00:02:04;;;;;;;59.92;53.45;;;;;;;2.35;100.00;103303.84;5209181;28;20020;-59
2022/01/15 00:04:34;;;;;;;68.93;57.22;;;;;;;2.34;100.00;103293.31;5208913;28;20025;-59
2022/01/15 00:07:05;;;;;;;59.90;53.70;;;;;;;2.33;100.00;103292.47;5209125;28;20036;-61
2022/01/15 00:09:37;;;;;;;65.45;55.17;;;;;;;2.35;100.00;103290.50;5209297;28;20064;-60
2022/01/15 00:12:09;;;;;;;70.25;54.10;;;;;;;2.34;100.00;103288.00;5208964;28;20029;-60
2022/01/15 00:14:42;;;;;;;57.55;51.35;;;;;;;2.35;100.00;103276.34;5208496;28;20021;-59
2022/01/15 00:17:31;;;;;;;58.28;52.28;;;;;;;2.24;100.00;103260.50;5209289;28;20400;-59
2022/01/15 00:20:05;;;;;;;58.35;52.05;;;;;;;2.36;100.00;103278.88;5209378;28;20025;-59
2022/01/15 00:22:36;;;;;;;59.95;50.90;;;;;;;2.36;100.00;103275.34;5208949;28;20029;-61
2022/01/15 00:25:07;;;;;;;69.20;57.03;;;;;;;2.36;100.00;103278.03;5226595;28;20035;-60
2022/01/15 00:27:38;;;;;;;57.85;51.75;;;;;;;2.28;100.00;103261.91;5209007;28;20040;-60
2022/01/15 00:30:11;;;;;;;58.15;52.67;;;;;;;2.33;100.00;103278.31;5208722;28;20477;-60
2022/01/15 00:32:42;;;;;;;68.57;51.88;;;;;;;2.32;100.00;103281.94;5208596;28;20025;-61
2022/01/15 00:35:14;;;;;;;59.88;53.47;;;;;;;2.30;100.00;103259.94;5208597;28;20443;-59
2022/01/15 00:37:46;;;;;;;60.35;51.83;;;;;;;2.34;100.00;103264.81;5209028;28;20036;-61
2022/01/15 00:40:18;;;;;;;58.10;52.08;;;;;;;2.33;100.00;103267.63;5208437;28;20025;-59
2022/01/15 00:42:49;;;;;;;62.08;55.00;;;;;;;2.35;100.00;103268.34;5208871;28;20120;-59
2022/01/15 00:45:22;;;;;;;63.55;55.67;;;;;;;2.37;100.00;103269.03;5208349;28;20112;-62
2022/01/15 00:47:53;;;;;;;58.95;52.50;;;;;;;2.29;100.00;103245.78;5210932;28;20033;-59
2022/01/15 00:50:23;;;;;;;62.47;56.15;;;;;;;2.35;100.00;103263.84;5212979;28;20361;-59
2022/01/15 00:52:54;;;;;;;69.63;55.63;;;;;;;2.33;100.00;103251.63;5212679;28;20443;-60
2022/01/15 00:55:24;;;;;;;56.80;50.55;;;;;;;2.37;100.00;103253.03;5212547;28;20031;-61
2022/01/15 00:57:55;;;;;;;63.47;51.42;;;;;;;2.36;100.00;103248.69;5212720;28;20398;-60
2022/01/15 01:00:27;;;;;;;56.03;50.03;;;;;;;2.12;100.00;103205.66;5230691;28;20155;-60
2022/01/15 01:02:57;;;;;;;61.17;54.50;;;;;;;2.35;100.00;103249.69;5212603;28;20025;-59
2022/01/15 01:05:28;;;;;;;66.68;54.22;;;;;;;2.32;100.00;103244.63;5211974;28;20019;-59
2022/01/15 01:07:59;;;;;;;71.45;55.67;;;;;;;2.30;100.00;103246.63;5212698;28;20032;-62
2022/01/15 01:24:03;;;;;;;62.45;55.75;;;;;;;2.25;100.00;103235.53;5229939;28;20025;-60
2022/01/15 01:26:43;;;;;;;72.60;56.10;;;;;;;2.24;100.00;103220.53;5212155;28;20039;-59
2022/01/15 01:34:36;;;;;;;68.97;61.53;;;;;;;2.18;100.00;103213.09;5230084;28;20106;-60
2022/01/15 01:37:14;;;;;;;68.13;61.08;;;;;;;2.21;100.00;103215.47;5212141;28;20025;-60
2022/01/15 01:39:50;;;;;;;62.40;55.33;;;;;;;2.14;100.00;103215.19;5228536;28;20032;-59
2022/01/15 01:45:06;;;;;;;71.38;60.10;;;;;;;2.14;100.00;103214.38;5229526;28;20032;-60
2022/01/15 01:50:29;;;;;;;71.43;59.60;;;;;;;2.13;100.00;103204.69;5229817;28;20393;-59
2022/01/15 01:53:00;;;;;;;67.30;60.17;;;;;;;1.99;100.00;103190.00;5211602;28;20033;-60
2022/01/15 01:55:30;;;;;;;70.15;60.53;;;;;;;2.02;100.00;103185.19;5211180;28;20060;-60
2022/01/15 01:58:01;;;;;;;70.00;60.30;;;;;;;2.12;100.00;103190.50;5210765;28;20021;-59
2022/01/15 02:00:32;;;;;;;67.85;59.88;;;;;;;2.09;100.00;103189.97;5211143;28;20062;-59
2022/01/15 02:03:02;;;;;;;80.05;63.17;;;;;;;2.03;100.00;103192.19;5211178;28;20469;-59
2022/01/15 02:05:33;;;;;;;76.35;59.65;;;;;;;2.08;100.00;103194.44;5211295;28;20028;-60
2022/01/15 02:08:04;;;;;;;73.85;60.53;;;;;;;2.02;100.00;103174.53;5211387;28;20033;-59
2022/01/15 02:10:34;;;;;;;80.10;57.65;;;;;;;2.08;100.00;103182.94;5211577;28;20059;-61
2022/01/15 02:13:08;;;;;;;63.42;55.58;;;;;;;2.08;100.00;103172.28;5211286;28;20028;-59
2022/01/15 02:15:38;;;;;;;78.93;62.65;;;;;;;2.06;100.00;103168.91;5210951;28;20021;-61
2022/01/15 02:18:10;;;;;;;83.72;65.13;;;;;;;2.09;100.00;103171.31;5211184;28;20503;-60
2022/01/15 02:23:33;;;;;;;86.10;64.55;;;;;;;2.06;100.00;103166.25;5229037;28;20523;-62
2022/01/15 02:26:07;;;;;;;77.47;65.05;;;;;;;2.08;100.00;103161.63;5211060;28;20033;-60
2022/01/15 02:28:44;;;;;;;72.88;58.80;;;;;;;2.09;100.00;103155.31;5227589;28;20039;-59
2022/01/15 02:31:17;;;;;;;88.85;66.57;;;;;;;2.08;100.00;103158.97;5210719;28;20052;-59
2022/01/15 02:33:49;;;;;;;73.18;63.75;;;;;;;2.06;100.00;103148.44;5210717;28;20017;-60
2022/01/15 02:36:32;;;;;;;77.72;64.45;;;;;;;2.10;100.00;103157.84;5210762;28;20032;-62
2022/01/15 02:39:05;;;;;;;92.90;61.47;;;;;;;1.76;100.00;103092.69;5210903;28;20024;-59
2022/01/15 02:41:37;;;;;;;84.15;64.25;;;;;;;2.10;100.00;103143.66;5210889;28;20032;-59
2022/01/15 02:44:15;;;;;;;86.50;60.67;;;;;;;2.10;100.00;103154.31;5210499;28;20020;-62
2022/01/15 02:49:20;;;;;;;81.07;66.00;;;;;;;2.12;100.00;103152.34;5228668;28;20462;-59
2022/01/15 02:51:51;;;;;;;72.22;58.15;;;;;;;2.04;100.00;103139.75;5210208;28;20112;-61
2022/01/15 02:54:21;;;;;;;91.18;64.40;;;;;;;2.02;100.00;103126.56;5210369;28;20017;-59
2022/01/15 02:56:52;;;;;;;85.88;60.80;;;;;;;2.11;100.00;103146.19;5210937;28;20112;-62
2022/01/15 02:59:26;;;;;;;94.93;63.83;;;;;;;2.11;100.00;103146.19;5210372;28;20135;-59
2022/01/15 03:01:56;;;;;;;89.93;61.67;;;;;;;2.11;100.00;103138.19;5210331;28;20028;-59
2022/01/15 03:04:26;;;;;;;83.85;61.97;;;;;;;2.09;100.00;103128.66;5210116;28;20078;-59
2022/01/15 03:06:57;;;;;;;75.10;57.35;;;;;;;2.11;100.00;103129.34;5210326;28;20433;-61
2022/01/15 03:09:27;;;;;;;93.05;66.40;;;;;;;2.07;100.00;103127.97;5209749;28;20035;-59
2022/01/15 03:12:02;;;;;;;101.10;68.95;;;;;;;2.10;100.00;103122.34;5209751;28;20024;-61
2022/01/15 03:14:32;;;;;;;87.65;64.30;;;;;;;2.10;100.00;103122.34;5209980;28;20032;-59
2022/01/15 03:17:03;;;;;;;93.60;63.22;;;;;;;2.08;100.00;103121.66;5210142;28;20401;-60
2022/01/15 03:19:33;;;;;;;96.55;63.47;;;;;;;1.96;100.00;103089.88;5209678;28;20401;-60
2022/01/15 03:22:04;;;;;;;74.88;57.55;;;;;;;2.09;100.00;103108.19;5209729;28;20017;-62
2022/01/15 03:24:35;;;;;;;85.55;68.15;;;;;;;2.04;100.00;103103.28;5209336;28;20499;-60
2022/01/15 03:27:05;;;;;;;82.32;63.70;;;;;;;2.09;100.00;103110.00;5209956;28;20025;-60
2022/01/15 03:29:36;;;;;;;82.65;66.75;;;;;;;2.08;100.00;103116.31;5209547;28;20111;-59
2022/01/15 03:32:07;;;;;;;84.03;66.50;;;;;;;2.07;100.00;103111.97;5209795;28;20032;-59
2022/01/15 03:34:37;;;;;;;72.80;56.17;;;;;;;2.02;100.00;103109.78;5209448;28;20021;-60
2022/01/15 03:37:08;;;;;;;83.63;66.97;;;;;;;1.99;100.00;103102.91;5209611;28;20044;-60
2022/01/15 03:39:38;;;;;;;94.75;63.63;;;;;;;2.00;100.00;103109.06;5209480;28;20033;-60
2022/01/15 03:42:12;;;;;;;76.30;58.92;;;;;;;2.00;100.00;103107.25;5209507;28;20032;-61
2022/01/15 03:44:45;;;;;;;79.57;63.25;;;;;;;1.96;100.00;103102.34;5209218;28;20025;-60
2022/01/15 03:47:17;;;;;;;76.70;59.80;;;;;;;1.83;100.00;103085.81;5209660;28;20061;-62
2022/01/15 03:49:47;;;;;;;76.07;58.78;;;;;;;1.94;100.00;103102.50;5209658;28;20087;-62
2022/01/15 03:52:18;;;;;;;78.63;63.53;;;;;;;1.95;100.00;103092.66;5209211;28;20024;-62
2022/01/15 03:54:48;;;;;;;84.25;63.25;;;;;;;1.93;100.00;103084.81;5209116;28;20032;-59
2022/01/15 03:57:19;;;;;;;75.35;59.63;;;;;;;1.96;100.00;103084.53;5209631;28;20056;-60
2022/01/15 03:59:49;;;;;;;68.15;57.65;;;;;;;1.97;100.00;103085.38;5227149;28;20033;-60
2022/01/15 04:02:20;;;;;;;69.80;54.28;;;;;;;1.93;100.00;103087.47;5209075;28;20032;-60
2022/01/15 04:04:50;;;;;;;63.28;55.95;;;;;;;1.75;100.00;103059.06;5208250;28;20031;-63
2022/01/15 04:07:20;;;;;;;73.35;58.00;;;;;;;1.87;100.00;103077.41;5208595;28;20412;-62
2022/01/15 04:09:51;;;;;;;73.82;59.08;;;;;;;1.76;100.00;103066.06;5208213;28;20557;-60
2022/01/15 04:12:21;;;;;;;66.07;54.25;;;;;;;1.64;100.00;103052.94;5207980;28;20048;-59
2022/01/15 04:14:52;;;;;;;61.78;54.20;;;;;;;1.83;100.00;103075.16;5208224;28;20473;-60
2022/01/15 04:17:22;;;;;;;70.28;53.22;;;;;;;1.84;100.00;103064.38;5208150;28;20025;-60
2022/01/15 04:19:53;;;;;;;70.28;57.67;;;;;;;1.75;100.00;103065.22;5208134;28;20495;-62
2022/01/15 04:22:24;;;;;;;74.28;59.63;;;;;;;1.75;100.00;103067.03;5207444;28;20031;-62
2022/01/15 04:24:54;;;;;;;73.97;58.42;;;;;;;1.78;100.00;103064.94;5207706;28;20029;-62
2022/01/15 04:27:24;;;;;;;81.55;62.83;;;;;;;1.81;100.00;103085.97;5208242;28;20033;-58
2022/01/15 04:29:56;;;;;;;71.03;56.65;;;;;;;1.72;100.00;103062.88;5208264;28;20036;-60
2022/01/15 04:32:26;;;;;;;67.72;58.53;;;;;;;1.76;100.00;103071.38;5208146;28;20028;-63
2022/01/15 04:34:58;;;;;;;75.63;53.60;;;;;;;1.73;100.00;103066.38;5207674;28;20021;-60
2022/01/15 04:37:37;;;;;;;70.75;58.88;;;;;;;1.73;100.00;103058.38;5208050;28;20055;-61
2022/01/15 04:40:09;;;;;;;64.87;53.53;;;;;;;1.70;100.00;103054.19;5207903;28;20086;-60
2022/01/15 04:42:39;;;;;;;77.15;60.22;;;;;;;1.71;100.00;103053.19;5207845;28;20055;-60
2022/01/15 04:45:11;;;;;;;72.32;52.90;;;;;;;1.74;100.00;103052.03;5208041;28;20029;-59
2022/01/15 04:47:41;;;;;;;75.78;54.78;;;;;;;1.69;100.00;103042.69;5207697;28;20025;-60
2022/01/15 04:50:17;;;;;;;72.78;52.22;;;;;;;1.66;100.00;103037.66;5208099;28;20128;-60
2022/01/15 04:52:48;;;;;;;71.80;52.03;;;;;;;1.58;100.00;103026.88;5208047;28;20191;-60
2022/01/15 04:55:18;;;;;;;72.90;51.08;;;;;;;1.55;100.00;103015.66;5207639;28;20103;-60
2022/01/15 04:57:49;;;;;;;66.05;50.45;;;;;;;1.55;100.00;103015.66;5208222;28;20120;-60
2022/01/15 05:00:19;;;;;;;77.50;53.75;;;;;;;1.61;100.00;103023.91;5207404;28;20063;-62
2022/01/15 05:02:50;;;;;;;81.70;56.97;;;;;;;1.62;100.00;103022.09;5165766;28;1179769;-62
2022/01/15 05:05:20;;;;;;;75.10;52.92;;;;;;;1.56;100.00;103012.00;5208303;28;20025;-60
2022/01/15 05:07:54;;;;;;;71.63;49.95;;;;;;;1.63;100.00;103007.78;5208618;28;20044;-59
2022/01/15 05:10:27;;;;;;;65.03;51.55;;;;;;;1.61;100.00;103001.78;5208577;28;20524;-60
2022/01/15 05:13:00;;;;;;;67.50;48.80;;;;;;;1.55;100.00;102999.69;5208491;28;20052;-58
2022/01/15 05:15:31;;;;;;;62.53;43.05;;;;;;;1.49;100.00;102997.59;5208318;28;20050;-61
2022/01/15 05:18:02;;;;;;;57.53;44.00;;;;;;;1.54;100.00;103003.31;5208268;28;20028;-61
2022/01/15 05:20:33;;;;;;;66.07;43.05;;;;;;;1.51;100.00;103004.44;5208298;28;20050;-60
2022/01/15 05:23:03;;;;;;;54.63;43.97;;;;;;;1.47;100.00;103003.06;5208641;28;20049;-60
2022/01/15 05:25:34;;;;;;;62.53;44.13;;;;;;;1.49;100.00;102992.25;5208143;28;20052;-62
2022/01/15 05:28:05;;;;;;;61.15;44.45;;;;;;;1.52;100.00;102994.63;5208446;28;20083;-59
2022/01/15 05:30:36;;;;;;;55.70;42.05;;;;;;;1.52;100.00;102994.63;5208365;28;20052;-63
2022/01/15 05:33:06;;;;;;;72.30;45.08;;;;;;;1.54;100.00;102988.19;5226959;28;20033;-60
2022/01/15 05:35:37;;;;;;;60.67;42.55;;;;;;;1.49;100.00;102970.97;5211986;28;20075;-59
2022/01/15 05:38:07;;;;;;;59.10;40.30;;;;;;;1.51;100.00;102977.00;5211839;28;20024;-64
2022/01/15 05:40:38;;;;;;;54.85;39.38;;;;;;;1.48;100.00;102978.13;5211961;28;20025;-61
2022/01/15 05:43:09;;;;;;;52.03;39.47;;;;;;;1.31;100.00;102950.44;5211849;28;20435;-60
2022/01/15 05:45:39;;;;;;;53.58;39.55;;;;;;;1.45;100.00;102978.41;5211925;28;20024;-59
2022/01/15 05:48:10;;;;;;;45.33;38.45;;;;;;;1.45;100.00;102975.72;5211732;28;20493;-59
2022/01/15 05:50:40;;;;;;;62.25;37.33;;;;;;;1.42;100.00;102967.22;5211703;28;20110;-62
2022/01/15 05:53:11;;;;;;;47.25;38.00;;;;;;;1.41;100.00;102969.03;5211601;28;20404;-62
2022/01/15 05:55:41;;;;;;;55.05;39.50;;;;;;;1.37;100.00;102956.16;5211606;28;20013;-60
2022/01/15 05:58:12;;;;;;;54.42;37.65;;;;;;;1.22;100.00;102929.16;5211912;28;20500;-60
2022/01/15 06:00:42;;;;;;;56.55;41.05;;;;;;;1.44;100.00;102959.94;5211696;28;20510;-60
2022/01/15 06:03:13;;;;;;;52.15;37.08;;;;;;;1.44;100.00;102965.25;5211242;28;20039;-60
2022/01/15 06:05:43;;;;;;;46.05;33.55;;;;;;;1.39;100.00;102962.19;5211526;28;20052;-60
2022/01/15 06:08:13;;;;;;;49.55;36.25;;;;;;;1.44;100.00;102967.91;5211332;28;20017;-60
2022/01/15 06:10:44;;;;;;;65.82;40.40;;;;;;;1.48;100.00;102972.78;5211614;28;20021;-58
2022/01/15 06:13:14;;;;;;;59.67;38.35;;;;;;;1.47;100.00;102970.28;5211319;28;20029;-60
2022/01/15 06:15:45;;;;;;;51.20;40.53;;;;;;;1.45;100.00;102967.75;5210910;28;20045;-60
2022/01/15 06:18:15;;;;;;;59.15;42.28;;;;;;;1.44;100.00;102968.75;5211442;28;20017;-60
2022/01/15 06:20:46;;;;;;;52.55;38.58;;;;;;;1.45;100.00;102972.22;5211015;28;20053;-61
2022/01/15 06:23:16;;;;;;;56.90;37.88;;;;;;;1.46;100.00;102968.59;5211263;28;20070;-60
2022/01/15 06:25:47;;;;;;;54.80;35.63;;;;;;;1.47;100.00;102972.94;5210683;28;20481;-60
2022/01/15 06:28:17;;;;;;;59.28;39.10;;;;;;;1.44;100.00;102970.59;5229221;28;20021;-59
2022/01/15 06:30:48;;;;;;;52.97;38.90;;;;;;;1.47;100.00;102965.78;5228788;28;20044;-60
2022/01/15 06:33:19;;;;;;;47.70;39.38;;;;;;;1.47;100.00;102965.78;5210809;28;20028;-62
2022/01/15 06:35:49;;;;;;;61.80;38.72;;;;;;;1.46;100.00;102961.44;5228563;28;20120;-60
2022/01/15 06:38:20;;;;;;;75.50;38.85;;;;;;;1.34;100.00;102942.16;5228336;28;20485;-62
2022/01/15 06:40:50;;;;;;;75.10;43.30;;;;;;;1.27;100.00;102935.72;5210577;28;20048;-60
2022/01/15 06:43:20;;;;;;;50.75;38.28;;;;;;;1.32;100.00;102951.25;5210651;28;20017;-59
2022/01/15 06:45:51;;;;;;;54.97;41.70;;;;;;;0.92;100.00;102895.59;5209707;28;20021;-60
2022/01/15 06:48:21;;;;;;;53.15;41.47;;;;;;;1.32;100.00;102945.94;5210508;28;20028;-62
2022/01/15 06:50:52;;;;;;;62.30;42.15;;;;;;;1.40;100.00;102962.03;5210225;28;20396;-61
2022/01/15 06:53:22;;;;;;;56.15;40.85;;;;;;;1.35;100.00;102958.97;5230691;28;20039;-60
2022/01/15 06:55:53;;;;;;;69.55;41.35;;;;;;;1.43;100.00;102961.75;5230885;28;20024;-61
2022/01/15 06:58:24;;;;;;;50.65;39.42;;;;;;;1.47;100.00;102968.44;5230833;28;20042;-60
2022/01/15 07:00:54;;;;;;;50.25;36.92;;;;;;;1.45;100.00;102966.91;5230331;28;20029;-61
2022/01/15 07:03:24;;;;;;;51.70;34.83;;;;;;;1.44;100.00;102968.75;5230659;28;20396;-61
2022/01/15 07:05:55;;;;;;;54.95;41.92;;;;;;;1.34;100.00;102950.16;5230967;28;20032;-61
2022/01/15 07:08:26;;;;;;;66.35;40.03;;;;;;;1.48;100.00;102966.63;5231001;28;20056;-61
2022/01/15 07:10:56;;;;;;;57.20;40.53;;;;;;;1.45;100.00;102962.41;5230519;28;20028;-60
2022/01/15 07:13:29;;;;;;;57.95;38.92;;;;;;;1.48;100.00;102972.78;5230352;28;20021;-59
2022/01/15 07:16:00;;;;;;;70.18;46.15;;;;;;;1.31;100.00;102950.44;5230814;28;20308;-59
2022/01/15 07:18:32;;;;;;;66.15;41.42;;;;;;;1.31;100.00;102945.09;5230861;28;20067;-61
2022/01/15 07:21:03;;;;;;;66.22;41.45;;;;;;;1.40;100.00;102963.88;5230455;28;20132;-60
2022/01/15 07:23:33;;;;;;;66.88;41.22;;;;;;;1.33;100.00;102955.59;5230227;28;20146;-60
2022/01/15 07:26:04;;;;;;;68.53;45.55;;;;;;;1.35;100.00;102961.63;5230347;28;20070;-62
2022/01/15 07:28:35;;;;;;;59.30;42.72;;;;;;;1.38;100.00;102965.81;5230510;28;20027;-60
2022/01/15 07:31:06;;;;;;;52.15;41.60;;;;;;;1.41;100.00;102955.75;5230226;28;20040;-60
2022/01/15 07:33:36;;;;;;;64.65;44.53;;;;;;;1.42;100.00;102954.75;5229974;28;20032;-62
2022/01/15 07:36:07;;;;;;;61.33;43.17;;;;;;;1.45;100.00;102956.25;5229092;28;20397;-62
2022/01/15 07:38:37;;;;;;;66.97;46.30;;;;;;;1.48;100.00;102961.28;5229292;28;20032;-60
2022/01/15 07:41:12;;;;;;;67.45;49.80;;;;;;;1.49;100.00;102962.97;5230523;28;20025;-60
2022/01/15 07:43:42;;;;;;;63.30;42.63;;;;;;;1.40;100.00;102948.72;5230124;28;20112;-60
2022/01/15 07:46:13;;;;;;;62.70;46.25;;;;;;;1.35;100.00;102935.84;5230294;28;20020;-61
2022/01/15 07:48:43;;;;;;;71.80;44.70;;;;;;;1.47;100.00;102960.47;5230142;28;20032;-61
2022/01/15 07:51:14;;;;;;;60.97;42.75;;;;;;;1.44;100.00;102949.28;5229983;28;20028;-60
2022/01/15 07:53:44;;;;;;;67.32;44.30;;;;;;;1.46;100.00;102947.28;5229802;28;20032;-59
2022/01/15 07:56:14;;;;;;;66.78;43.20;;;;;;;1.48;100.00;102945.31;5229846;28;20020;-58
2022/01/15 07:58:45;;;;;;;70.28;44.75;;;;;;;1.46;100.00;102947.28;5229935;28;20521;-60
2022/01/15 08:01:17;;;;;;;61.75;40.08;;;;;;;1.41;100.00;102941.59;5229696;28;20431;-60
2022/01/15 08:03:48;;;;;;;59.20;38.33;;;;;;;1.47;100.00;102941.81;5229329;28;20029;-60
2022/01/15 08:06:19;;;;;;;58.60;36.97;;;;;;;1.29;100.00;102917.78;5229783;28;20047;-60
2022/01/15 08:08:49;;;;;;;78.65;41.58;;;;;;;1.39;100.00;102927.56;5229851;28;20119;-60
2022/01/15 08:11:20;;;;;;;69.15;43.78;;;;;;;1.48;100.00;102934.69;5229376;28;20024;-61
2022/01/15 08:13:50;;;;;;;61.08;42.35;;;;;;;1.44;100.00;102923.50;5229382;28;20063;-59
2022/01/15 08:16:21;;;;;;;75.35;42.30;;;;;;;1.47;100.00;102927.66;5229532;28;20056;-59
2022/01/15 08:18:51;;;;;;;90.75;40.15;;;;;;;1.46;100.00;102928.66;5229870;28;20070;-57
2022/01/15 08:21:22;;;;;;;55.95;34.75;;;;;;;1.44;100.00;102926.16;5229365;28;20024;-61
2022/01/15 08:23:52;;;;;;;69.78;40.05;;;;;;;1.48;100.00;102929.34;5228116;28;20029;-60
2022/01/15 08:26:23;;;;;;;49.53;34.72;;;;;;;1.49;100.00;102925.69;5228356;28;20082;-64
2022/01/15 08:28:53;;;;;;;51.00;37.40;;;;;;;1.53;100.00;102933.25;5228127;28;20033;-61
2022/01/15 08:31:23;;;;;;;52.72;33.88;;;;;;;1.53;100.00;102932.41;5228046;28;20027;-59
2022/01/15 08:33:54;;;;;;;56.47;34.15;;;;;;;1.52;100.00;102930.75;5227987;28;20111;-62
2022/01/15 08:36:24;;;;;;;61.30;34.90;;;;;;;1.09;100.00;102852.31;5228150;28;20051;-60
2022/01/15 08:38:55;;;;;;;58.10;34.90;;;;;;;1.44;100.00;102910.19;5228037;28;20028;-59
2022/01/15 08:41:28;;;;;;;47.40;33.03;;;;;;;1.45;100.00;102909.19;5228123;28;20115;-63
2022/01/15 08:43:58;;;;;;;45.67;33.80;;;;;;;1.44;100.00;102912.84;5227619;28;20032;-61
2022/01/15 08:46:29;;;;;;;49.58;33.45;;;;;;;1.29;100.00;102888.50;5228017;28;20477;-61
2022/01/15 08:48:59;;;;;;;53.17;34.75;;;;;;;1.59;100.00;102930.03;5227989;28;20032;-59
2022/01/15 08:51:30;;;;;;;48.00;35.72;;;;;;;1.60;100.00;102923.72;5227675;28;20052;-60
2022/01/15 08:54:00;;;;;;;51.85;34.10;;;;;;;1.57;100.00;102923.16;5227813;28;20059;-63
2022/01/15 08:56:31;;;;;;;53.20;34.15;;;;;;;1.63;100.00;102930.56;5228134;28;20396;-62
2022/01/15 08:59:03;;;;;;;48.67;36.00;;;;;;;1.62;100.00;102929.72;5227928;28;20030;-62
2022/01/15 09:01:33;;;;;;;48.00;33.08;;;;;;;1.52;100.00;102920.94;5227942;28;20028;-61
2022/01/15 09:04:04;;;;;;;44.40;31.90;;;;;;;1.68;100.00;102942.47;5227260;28;20033;-58
2022/01/15 09:06:34;;;;;;;58.80;34.67;;;;;;;1.71;100.00;102933.34;5227917;28;20031;-59
2022/01/15 09:09:05;;;;;;;45.08;34.75;;;;;;;1.77;100.00;102924.75;5230609;28;20062;-59
2022/01/15 09:11:36;;;;;;;46.63;32.25;;;;;;;1.65;100.00;102905.47;5231868;28;20028;-62
2022/01/15 09:14:07;;;;;;;40.50;33.67;;;;;;;1.77;100.00;102918.56;5231541;28;20506;-59
2022/01/15 09:16:38;;;;;;;57.25;35.50;;;;;;;1.87;100.00;102930.88;5231862;28;20032;-62
2022/01/15 09:19:09;;;;;;;54.10;35.83;;;;;;;1.82;100.00;102918.97;5231941;28;20048;-60
2022/01/15 09:21:40;;;;;;;38.88;33.60;;;;;;;1.87;100.00;102930.03;5231716;28;20050;-62
2022/01/15 09:24:10;;;;;;;49.22;34.38;;;;;;;1.84;100.00;102919.66;5231408;28;20043;-62
2022/01/15 09:32:08;;;;;;;47.47;33.53;;;;;;;1.88;100.00;102924.56;5249782;28;20036;-61
2022/01/15 09:34:39;;;;;;;49.03;33.95;;;;;;;1.94;100.00;102926.63;5231338;28;20112;-62
2022/01/15 09:37:09;;;;;;;44.55;36.33;;;;;;;1.78;100.00;102890.94;5231466;28;20514;-60
2022/01/15 09:39:40;;;;;;;44.60;32.78;;;;;;;1.99;100.00;102913.72;5231491;28;20024;-60
2022/01/15 09:42:12;;;;;;;48.20;35.65;;;;;;;2.06;100.00;102913.09;5231402;28;20117;-62
2022/01/15 09:44:44;;;;;;;59.13;38.80;;;;;;;2.09;100.00;102907.47;5230899;28;20025;-62
2022/01/15 09:47:16;;;;;;;42.40;33.65;;;;;;;2.11;100.00;102905.47;5231334;28;20025;-60
2022/01/15 09:49:47;;;;;;;44.13;36.00;;;;;;;2.03;100.00;102888.41;5231028;28;20477;-62
2022/01/15 09:52:17;;;;;;;49.13;35.40;;;;;;;2.11;100.00;102897.50;5231039;28;20619;-62
2022/01/15 09:54:48;;;;;;;45.33;34.47;;;;;;;2.10;100.00;102888.66;5230952;28;20115;-60
2022/01/15 09:57:19;;;;;;;50.22;36.78;;;;;;;2.21;100.00;102890.28;5231108;28;20016;-60
2022/01/15 09:59:49;;;;;;;49.92;38.45;;;;;;;2.30;100.00;102897.38;5231058;28;20028;-62
2022/01/15 10:02:20;;;;;;;53.50;36.53;;;;;;;2.36;100.00;102894.09;5230597;28;20487;-62
2022/01/15 10:04:50;;;;;;;46.58;33.85;;;;;;;2.38;100.00;102892.94;5230611;28;20382;-62
2022/01/15 10:07:27;;;;;;;43.47;36.35;;;;;;;2.30;100.00;102894.72;5230880;28;20476;-62
2022/01/15 10:10:13;;;;;;;40.70;31.85;;;;;;;2.39;100.00;102891.13;5230894;28;20104;-60
2022/01/15 10:12:44;;;;;;;44.00;36.03;;;;;;;2.52;100.00;102899.59;5230564;28;20178;-61
2022/01/15 10:15:17;;;;;;;40.00;32.30;;;;;;;2.60;100.00;102899.63;5230507;28;20036;-63
2022/01/15 10:17:48;;;;;;;40.95;30.73;;;;;;;2.44;100.00;102894.16;5230708;28;20028;-58
2022/01/15 10:20:22;;;;;;;37.42;31.20;;;;;;;2.51;100.00;102903.25;5229172;28;20134;-59
2022/01/15 10:22:53;;;;;;;51.03;33.20;;;;;;;2.53;100.00;102900.41;5230659;28;20284;-59
2022/01/15 10:25:23;;;;;;;44.83;31.83;;;;;;;2.48;100.00;102916.03;5230058;28;20433;-60
2022/01/15 10:27:55;;;;;;;46.15;34.80;;;;;;;2.29;100.00;102888.53;5230441;28;20036;-61
2022/01/15 10:30:28;;;;;;;48.38;35.55;;;;;;;2.40;100.00;102903.44;5230462;28;20024;-59
2022/01/15 10:33:07;;;;;;;36.13;32.38;;;;;;;2.27;100.00;102868.34;5230356;28;20036;-62
2022/01/15 10:35:43;;;;;;;47.63;38.67;;;;;;;2.56;100.00;102882.28;5229943;28;20484;-59
2022/01/15 10:38:16;;;;;;;46.92;36.45;;;;;;;2.70;100.00;102900.41;5230319;28;20029;-61
2022/01/15 10:40:50;;;;;;;43.20;32.78;;;;;;;2.77;100.00;102899.78;5230251;28;20021;-62
2022/01/15 10:43:33;;;;;;;41.30;32.40;;;;;;;2.83;100.00;102901.84;5230163;28;20028;-62
2022/01/15 10:46:03;;;;;;;44.13;33.40;;;;;;;2.94;100.00;102894.41;5230248;28;20070;-59
2022/01/15 10:48:37;;;;;;;37.97;30.27;;;;;;;3.06;100.00;102895.00;5230120;28;20025;-62
2022/01/15 10:51:13;;;;;;;41.10;32.42;;;;;;;3.17;100.00;102888.56;5229961;28;20028;-60
2022/01/15 10:53:46;;;;;;;47.78;36.22;;;;;;;3.23;100.00;102883.41;5229906;28;20029;-60
2022/01/15 10:56:18;;;;;;;36.15;32.40;;;;;;;3.21;100.00;102869.38;5229802;28;20043;-61
2022/01/15 10:59:07;;;;;;;42.78;33.38;;;;;;;3.02;100.00;102866.94;5229851;28;20081;-62
2022/01/15 11:01:37;;;;;;;41.95;30.90;;;;;;;2.98;100.00;102866.41;5229788;28;20037;-63
2022/01/15 11:04:11;;;;;;;44.35;33.15;;;;;;;3.13;100.00;102874.69;5229002;28;20032;-61
2022/01/15 11:06:41;;;;;;;35.50;29.40;;;;;;;3.19;100.00;102882.03;5229800;28;20444;-63
2022/01/15 11:09:12;;;;;;;40.80;34.28;;;;;;;3.12;100.00;102869.50;5229572;28;20020;-62
2022/01/15 11:11:55;;;;;;;34.47;31.02;;;;;;;3.23;100.00;102877.22;5229542;28;20031;-62
2022/01/15 11:14:26;;;;;;;40.30;32.10;;;;;;;3.22;100.00;102870.22;5229499;28;20032;-63
2022/01/15 11:16:59;;;;;;;42.67;33.35;;;;;;;3.26;100.00;102861.75;5229563;28;20032;-62
2022/01/15 11:19:31;;;;;;;34.35;29.90;;;;;;;3.50;100.00;102860.19;5229363;28;20447;-60
2022/01/15 11:22:03;;;;;;;36.17;27.65;;;;;;;3.42;100.00;102801.41;5229310;28;20024;-60
2022/01/15 11:24:35;;;;;;;33.63;30.05;;;;;;;3.83;100.00;102853.97;5229180;28;20055;-60
2022/01/15 11:27:05;;;;;;;35.58;30.70;;;;;;;3.80;100.00;102854.28;5229359;28;20027;-62
2022/01/15 11:29:36;;;;;;;35.58;28.88;;;;;;;3.69;100.00;102839.41;5229243;28;20028;-62
2022/01/15 11:32:09;;;;;;;35.78;29.08;;;;;;;3.82;100.00;102846.09;5228826;28;20022;-60
2022/01/15 11:34:41;;;;;;;31.15;27.80;;;;;;;3.92;100.00;102838.78;5229362;28;20583;-61
2022/01/15 11:37:16;;;;;;;32.83;28.63;;;;;;;3.95;100.00;102843.81;5229238;28;20024;-62
2022/01/15 11:39:48;;;;;;;34.22;29.23;;;;;;;3.90;100.00;102844.28;5228991;28;20055;-60
2022/01/15 11:42:27;;;;;;;31.50;27.33;;;;;;;3.84;100.00;102823.56;5228970;28;20117;-60
2022/01/15 11:44:58;;;;;;;31.05;27.88;;;;;;;3.84;100.00;102842.28;5228692;28;20081;-61
2022/01/15 11:47:29;;;;;;;31.88;27.45;;;;;;;3.82;100.00;102848.78;5229036;28;20020;-62
2022/01/15 11:50:19;;;;;;;32.97;25.70;;;;;;;3.65;100.00;102847.91;5229029;28;20070;-60
2022/01/15 11:52:50;;;;;;;38.45;30.48;;;;;;;3.63;100.00;102837.38;5228876;28;20028;-63
2022/01/15 11:55:24;;;;;;;38.90;28.40;;;;;;;3.57;100.00;102826.50;5228615;28;20404;-62
2022/01/15 11:57:58;;;;;;;38.97;29.20;;;;;;;3.62;100.00;102826.84;5228803;28;20089;-62
2022/01/15 12:00:30;;;;;;;35.53;31.67;;;;;;;3.72;100.00;102830.22;5228881;28;20025;-63
2022/01/15 12:03:08;;;;;;;32.72;27.48;;;;;;;3.80;100.00;102819.53;5228465;28;20036;-63
2022/01/15 12:05:41;;;;;;;39.92;32.03;;;;;;;3.78;100.00;102824.22;5228366;28;20028;-63